createdAt,value
2018-10-12T00:01:18.538Z,16.00
2018-10-12T00:03:47.646Z,16.10
2018-10-12T00:06:16.831Z,16.20
2018-10-12T00:08:46.086Z,16.20
2018-10-12T00:11:15.410Z,16.30
2018-10-12T00:13:44.807Z,16.30
2018-10-12T00:16:13.978Z,16.30
2018-10-12T00:18:43.177Z,16.30
2018-10-12T00:21:12.473Z,16.40
2018-10-12T00:23:41.639Z,16.40
2018-10-12T00:26:10.781Z,16.40
2018-10-12T00:28:39.991Z,16.40
2018-10-12T00:31:09.140Z,16.40
2018-10-12T00:33:38.423Z,16.40
2018-10-12T00:36:07.767Z,16.40
2018-10-12T00:38:37.086Z,16.30
2018-10-12T00:41:06.442Z,16.30
2018-10-12T00:43:35.609Z,16.30
2018-10-12T00:46:04.917Z,16.30
2018-10-12T00:48:34.124Z,16.30
2018-10-12T00:51:03.355Z,16.30
2018-10-12T00:53:33.338Z,16.20
2018-10-12T00:56:02.546Z,16.20
2018-10-12T00:58:31.665Z,16.10
2018-10-12T01:01:00.874Z,16.00
2018-10-12T01:03:30.158Z,16.00
2018-10-12T01:05:59.776Z,16.00
2018-10-12T01:08:29.090Z,16.00
2018-10-12T01:10:58.441Z,15.90
2018-10-12T01:13:27.598Z,15.90
2018-10-12T01:15:56.921Z,15.80
2018-10-12T01:18:26.215Z,15.80
2018-10-12T01:20:55.433Z,15.80
2018-10-12T01:23:24.794Z,15.80
2018-10-12T01:25:54.031Z,15.70
2018-10-12T01:28:23.297Z,15.70
2018-10-12T01:30:52.486Z,15.70
2018-10-12T01:33:21.825Z,15.70
2018-10-12T01:35:51.051Z,15.70
2018-10-12T01:38:20.414Z,15.70
2018-10-12T01:40:49.695Z,15.70
2018-10-12T01:43:18.978Z,15.60
2018-10-12T01:45:48.185Z,15.60
2018-10-12T01:48:17.389Z,15.60
2018-10-12T01:50:46.777Z,15.50
2018-10-12T01:53:16.034Z,15.50
2018-10-12T01:55:45.301Z,15.50
2018-10-12T01:58:15.659Z,15.50
2018-10-12T02:00:44.818Z,15.50
2018-10-12T02:03:14.083Z,15.50
2018-10-12T02:05:43.293Z,15.50
2018-10-12T02:08:12.586Z,15.50
2018-10-12T02:10:41.722Z,15.50
2018-10-12T02:13:10.901Z,15.40
2018-10-12T02:15:41.116Z,15.40
2018-10-12T02:18:10.321Z,15.30
2018-10-12T02:20:39.489Z,15.40
2018-10-12T02:23:08.702Z,15.30
2018-10-12T02:25:37.885Z,15.30
2018-10-12T02:28:07.207Z,15.30
2018-10-12T02:30:36.499Z,15.20
2018-10-12T02:33:05.757Z,15.20
2018-10-12T02:35:34.893Z,15.20
2018-10-12T02:38:04.091Z,15.20
2018-10-12T02:40:33.324Z,15.20
2018-10-12T02:43:02.501Z,15.20
2018-10-12T02:45:31.724Z,15.10
2018-10-12T02:48:01.001Z,15.10
2018-10-12T02:50:30.303Z,15.10
2018-10-12T02:52:59.473Z,15.00
2018-10-12T02:55:28.650Z,15.00
2018-10-12T02:57:57.794Z,15.00
2018-10-12T03:00:27.070Z,15.00
2018-10-12T03:02:56.214Z,15.00
2018-10-12T03:05:25.570Z,15.00
2018-10-12T03:07:54.802Z,15.00
2018-10-12T03:10:24.038Z,15.00
2018-10-12T03:12:53.143Z,15.00
2018-10-12T03:15:22.179Z,14.90
2018-10-12T03:17:51.503Z,15.00
2018-10-12T03:20:20.681Z,14.90
2018-10-12T03:22:49.808Z,15.00
2018-10-12T03:25:19.128Z,14.90
2018-10-12T03:27:59.414Z,14.80
2018-10-12T03:30:28.635Z,14.80
2018-10-12T03:32:57.942Z,14.80
2018-10-12T03:35:27.329Z,14.80
2018-10-12T03:37:56.541Z,14.80
2018-10-12T03:40:25.891Z,14.80
2018-10-12T03:42:55.228Z,14.90
2018-10-12T03:45:24.542Z,14.90
2018-10-12T03:47:53.833Z,14.80
2018-10-12T03:50:23.151Z,14.90
2018-10-12T03:52:52.352Z,14.90
2018-10-12T03:55:21.493Z,14.90
2018-10-12T03:57:50.634Z,14.80
2018-10-12T04:00:19.842Z,14.80
2018-10-12T04:02:49.025Z,14.80
2018-10-12T04:05:18.385Z,14.80
2018-10-12T04:07:47.650Z,14.70
2018-10-12T04:10:16.843Z,14.70
2018-10-12T04:12:45.970Z,14.70
2018-10-12T04:15:15.148Z,14.70
2018-10-12T04:17:44.319Z,14.70
2018-10-12T04:20:13.548Z,14.60
2018-10-12T04:22:42.853Z,14.60
2018-10-12T04:25:12.013Z,14.60
2018-10-12T04:27:41.157Z,14.60
2018-10-12T04:30:10.443Z,14.60
2018-10-12T04:32:40.317Z,14.60
2018-10-12T04:35:09.429Z,14.60
2018-10-12T04:37:38.944Z,14.60
2018-10-12T04:40:20.910Z,14.60
2018-10-12T04:42:50.328Z,14.60
2018-10-12T04:45:19.693Z,14.50
2018-10-12T04:47:49.014Z,14.50
2018-10-12T04:50:18.238Z,14.50
2018-10-12T04:52:47.518Z,14.50
2018-10-12T04:55:16.653Z,14.40
2018-10-12T04:57:45.829Z,14.40
2018-10-12T05:00:15.151Z,14.40
2018-10-12T05:02:44.456Z,14.40
2018-10-12T05:05:13.714Z,14.40
2018-10-12T05:07:44.891Z,14.30
2018-10-12T05:10:14.346Z,14.30
2018-10-12T05:12:44.806Z,14.30
2018-10-12T05:15:13.993Z,14.30
2018-10-12T05:17:43.238Z,14.30
2018-10-12T05:20:12.556Z,14.20
2018-10-12T05:22:41.762Z,14.20
2018-10-12T05:25:10.946Z,14.20
2018-10-12T05:27:40.171Z,14.10
2018-10-12T05:30:09.557Z,14.10
2018-10-12T05:32:38.638Z,14.00
2018-10-12T05:35:07.803Z,14.10
2018-10-12T05:37:39.309Z,14.00
2018-10-12T05:40:08.540Z,14.00
2018-10-12T05:42:37.783Z,14.00
2018-10-12T05:45:07.793Z,14.00
2018-10-12T05:47:36.918Z,14.00
2018-10-12T05:50:09.918Z,14.00
2018-10-12T05:52:40.630Z,14.10
2018-10-12T05:55:10.172Z,14.10
2018-10-12T05:57:42.054Z,14.10
2018-10-12T06:00:11.947Z,14.10
2018-10-12T06:02:41.251Z,14.10
2018-10-12T06:05:10.595Z,14.10
2018-10-12T06:07:39.750Z,14.20
2018-10-12T06:10:09.088Z,14.20
2018-10-12T06:12:38.209Z,14.20
2018-10-12T06:15:07.465Z,14.20
2018-10-12T06:17:36.613Z,14.30
2018-10-12T06:20:05.850Z,14.30
2018-10-12T06:22:35.023Z,14.30
2018-10-12T06:25:04.291Z,14.30
2018-10-12T06:27:33.559Z,14.40
2018-10-12T06:30:02.742Z,14.40
2018-10-12T06:32:31.893Z,14.40
2018-10-12T06:35:01.097Z,14.50
2018-10-12T06:37:30.445Z,14.50
2018-10-12T06:39:59.630Z,14.50
2018-10-12T06:42:28.841Z,14.60
2018-10-12T06:44:57.988Z,14.60
2018-10-12T06:47:27.244Z,14.60
2018-10-12T06:49:56.414Z,14.70
2018-10-12T06:52:25.522Z,14.70
2018-10-12T06:54:54.649Z,14.70
2018-10-12T06:57:23.830Z,14.80
2018-10-12T06:59:53.082Z,14.80
2018-10-12T07:02:22.413Z,14.90
2018-10-12T07:04:52.110Z,14.90
2018-10-12T07:07:21.408Z,14.90
2018-10-12T07:09:50.559Z,14.90
2018-10-12T07:12:19.939Z,15.00
2018-10-12T07:14:49.002Z,15.00
2018-10-12T07:17:18.213Z,15.10
2018-10-12T07:19:47.386Z,15.20
2018-10-12T07:22:16.626Z,15.20
2018-10-12T07:24:45.937Z,15.30
2018-10-12T07:27:15.313Z,15.40
2018-10-12T07:29:44.468Z,15.50
2018-10-12T07:32:13.729Z,15.60
2018-10-12T07:34:43.040Z,15.60
2018-10-12T07:37:12.425Z,15.70
2018-10-12T07:39:41.630Z,15.70
2018-10-12T07:42:10.714Z,15.80
2018-10-12T07:44:39.894Z,15.90
2018-10-12T07:47:09.096Z,16.00
2018-10-12T07:49:38.237Z,16.00
2018-10-12T07:52:07.444Z,16.10
2018-10-12T07:54:36.717Z,16.20
2018-10-12T07:57:11.735Z,16.30
2018-10-12T07:59:42.090Z,16.30
2018-10-12T08:02:11.950Z,16.40
2018-10-12T08:04:41.969Z,16.50
2018-10-12T08:07:12.159Z,16.70
2018-10-12T08:09:41.581Z,16.80
2018-10-12T08:12:10.694Z,16.90
2018-10-12T08:14:39.835Z,17.00
2018-10-12T08:17:09.099Z,17.20
2018-10-12T08:19:38.343Z,17.30
2018-10-12T08:22:07.706Z,17.40
2018-10-12T08:24:37.071Z,17.60
2018-10-12T08:27:06.638Z,17.80
2018-10-12T08:29:35.707Z,18.00
2018-10-12T08:32:05.033Z,18.20
2018-10-12T08:34:34.839Z,18.30
2018-10-12T08:37:03.951Z,18.50
2018-10-12T08:39:33.178Z,18.70
2018-10-12T08:42:02.460Z,18.90
2018-10-12T08:44:31.640Z,19.10
2018-10-12T08:47:00.979Z,19.30
2018-10-12T08:49:30.082Z,19.50
2018-10-12T08:51:59.222Z,19.80
2018-10-12T08:54:28.441Z,20.00
2018-10-12T08:56:57.672Z,20.30
2018-10-12T08:59:26.982Z,20.70
2018-10-12T09:01:56.142Z,21.10
2018-10-12T09:04:25.278Z,21.40
2018-10-12T09:06:54.307Z,21.60
2018-10-12T09:09:23.581Z,21.80
2018-10-12T09:11:52.797Z,22.10
2018-10-12T09:14:21.945Z,22.30
2018-10-12T09:16:51.158Z,22.50
2018-10-12T09:19:20.308Z,22.60
2018-10-12T09:21:49.557Z,22.80
2018-10-12T09:24:18.804Z,23.00
2018-10-12T09:26:48.007Z,23.00
2018-10-12T09:29:17.822Z,23.10
2018-10-12T09:31:47.100Z,23.20
2018-10-12T09:34:16.277Z,23.20
2018-10-12T09:36:45.641Z,23.10
2018-10-12T09:39:14.747Z,23.00
2018-10-12T09:41:43.997Z,23.00
2018-10-12T09:44:13.225Z,22.90
2018-10-12T09:46:43.237Z,23.00
2018-10-12T09:49:12.482Z,23.00
2018-10-12T09:51:41.656Z,23.10
2018-10-12T09:54:11.303Z,23.00
2018-10-12T09:56:40.493Z,23.10
2018-10-12T09:59:09.843Z,23.20
2018-10-12T10:01:44.346Z,23.50
2018-10-12T10:04:18.383Z,23.80
2018-10-12T10:06:47.542Z,24.20
2018-10-12T10:09:16.763Z,24.60
2018-10-12T10:11:46.094Z,25.10
2018-10-12T10:14:15.314Z,25.60
2018-10-12T10:16:44.522Z,25.90
2018-10-12T10:19:13.792Z,26.30
2018-10-12T10:21:42.913Z,26.70
2018-10-12T10:24:12.058Z,27.30
2018-10-12T10:26:41.410Z,27.60
2018-10-12T10:29:10.629Z,27.80
2018-10-12T10:31:39.898Z,28.00
2018-10-12T10:34:09.227Z,28.30
2018-10-12T10:36:38.415Z,28.40
2018-10-12T10:39:09.603Z,28.50
2018-10-12T10:41:38.766Z,28.60
2018-10-12T10:44:08.057Z,28.70
2018-10-12T10:46:37.321Z,29.00
2018-10-12T10:49:06.781Z,29.20
2018-10-12T10:51:35.997Z,29.30
2018-10-12T10:54:05.205Z,29.20
2018-10-12T10:56:34.437Z,29.40
2018-10-12T10:59:03.536Z,29.70
2018-10-12T11:01:32.618Z,29.50
2018-10-12T11:04:01.826Z,29.70
2018-10-12T11:06:31.095Z,29.90
2018-10-12T11:09:00.390Z,30.30
2018-10-12T11:11:29.645Z,30.50
2018-10-12T11:13:58.857Z,30.70
2018-10-12T11:16:27.988Z,30.80
2018-10-12T11:18:57.214Z,30.90
2018-10-12T11:21:26.387Z,30.90
2018-10-12T11:23:55.595Z,30.70
2018-10-12T11:26:24.874Z,30.70
2018-10-12T11:28:54.174Z,30.80
2018-10-12T11:31:23.482Z,30.90
2018-10-12T11:33:52.658Z,30.90
2018-10-12T11:36:22.850Z,30.90
2018-10-12T11:38:52.086Z,31.10
2018-10-12T11:41:21.351Z,31.10
2018-10-12T11:43:50.649Z,31.20
2018-10-12T11:46:19.881Z,31.20
2018-10-12T11:48:49.065Z,31.10
2018-10-12T11:51:18.441Z,31.10
2018-10-12T11:53:47.654Z,31.20
2018-10-12T11:56:16.894Z,31.30
2018-10-12T11:58:46.166Z,31.60
2018-10-12T12:01:15.354Z,31.60
2018-10-12T12:03:44.558Z,31.50
2018-10-12T12:06:13.838Z,31.40
2018-10-12T12:08:43.070Z,31.50
2018-10-12T12:11:12.157Z,31.50
2018-10-12T12:13:41.974Z,31.50
2018-10-12T12:16:11.142Z,31.30
2018-10-12T12:18:40.347Z,31.10
2018-10-12T12:21:09.529Z,31.00
2018-10-12T12:23:38.641Z,31.00
2018-10-12T12:26:07.958Z,31.00
2018-10-12T12:28:37.041Z,31.00
2018-10-12T12:31:06.378Z,31.10
2018-10-12T12:33:35.542Z,31.00
2018-10-12T12:36:06.302Z,31.10
2018-10-12T12:38:35.420Z,31.10
2018-10-12T12:41:04.706Z,31.20
2018-10-12T12:43:33.901Z,31.20
2018-10-12T12:46:03.100Z,31.00
2018-10-12T12:48:33.210Z,30.90
2018-10-12T12:51:02.027Z,30.70
2018-10-12T12:53:31.373Z,30.70
2018-10-12T12:56:00.544Z,30.70
2018-10-12T12:58:29.626Z,30.70
2018-10-12T13:00:58.745Z,30.80
2018-10-12T13:03:27.850Z,30.70
2018-10-12T13:05:57.222Z,30.50
2018-10-12T13:08:27.282Z,30.30
2018-10-12T13:10:56.485Z,30.10
2018-10-12T13:13:25.637Z,29.70
2018-10-12T13:15:54.844Z,29.40
2018-10-12T13:18:24.071Z,29.20
2018-10-12T13:20:53.274Z,28.80
2018-10-12T13:23:22.477Z,28.60
2018-10-12T13:25:51.783Z,28.40
2018-10-12T13:28:20.853Z,28.30
2018-10-12T13:30:50.074Z,28.10
2018-10-12T13:33:19.281Z,27.90
2018-10-12T13:35:48.494Z,27.70
2018-10-12T13:38:17.776Z,27.60
2018-10-12T13:40:47.021Z,27.40
2018-10-12T13:43:16.161Z,27.50
2018-10-12T13:45:45.490Z,27.40
2018-10-12T13:48:14.709Z,27.50
2018-10-12T13:50:44.009Z,27.50
2018-10-12T13:53:13.176Z,27.50
2018-10-12T13:55:42.270Z,27.30
2018-10-12T13:58:11.495Z,27.30
2018-10-12T14:00:40.645Z,27.20
2018-10-12T14:03:09.911Z,27.00
2018-10-12T14:05:39.184Z,26.80
2018-10-12T14:08:08.613Z,26.70
2018-10-12T14:10:37.831Z,26.50
2018-10-12T14:13:07.239Z,26.30
2018-10-12T14:15:36.601Z,26.20
2018-10-12T14:18:05.826Z,26.00
2018-10-12T14:20:35.004Z,25.70
2018-10-12T14:23:04.046Z,25.60
2018-10-12T14:25:33.223Z,25.50
2018-10-12T14:28:02.452Z,25.40
2018-10-12T14:30:31.653Z,25.10
2018-10-12T14:33:01.148Z,25.00
2018-10-12T14:35:30.203Z,24.80
2018-10-12T14:37:59.837Z,24.70
2018-10-12T14:40:29.110Z,24.40
2018-10-12T14:42:58.321Z,24.30
2018-10-12T14:45:27.556Z,24.20
2018-10-12T14:47:56.714Z,24.10
2018-10-12T14:50:25.861Z,24.00
2018-10-12T14:52:55.027Z,23.80
2018-10-12T14:55:25.003Z,23.60
2018-10-12T14:57:54.166Z,23.50
2018-10-12T15:00:23.403Z,23.30
2018-10-12T15:02:52.664Z,23.20
2018-10-12T15:05:21.848Z,23.10
2018-10-12T15:07:51.369Z,23.00
2018-10-12T15:10:20.475Z,22.90
2018-10-12T15:12:49.822Z,22.80
2018-10-12T15:15:25.937Z,22.70
2018-10-12T15:17:56.023Z,22.70
2018-10-12T15:20:25.256Z,22.60
2018-10-12T15:22:54.641Z,22.40
2018-10-12T15:25:23.997Z,22.30
2018-10-12T15:27:53.044Z,22.20
2018-10-12T15:30:22.319Z,22.20
2018-10-12T15:32:51.588Z,22.10
2018-10-12T15:35:20.779Z,22.10
2018-10-12T15:37:50.054Z,22.00
2018-10-12T15:40:19.298Z,21.90
2018-10-12T15:42:48.685Z,21.80
2018-10-12T15:45:17.734Z,21.70
2018-10-12T15:47:47.022Z,21.70
2018-10-12T15:50:16.226Z,21.60
2018-10-12T15:52:45.498Z,21.50
2018-10-12T15:55:14.709Z,21.50
2018-10-12T15:57:43.821Z,21.40
2018-10-12T16:00:13.066Z,21.40
2018-10-12T16:02:42.277Z,21.30
2018-10-12T16:05:11.497Z,21.20
2018-10-12T16:07:40.618Z,21.20
2018-10-12T16:10:09.782Z,21.10
2018-10-12T16:12:39.057Z,21.00
2018-10-12T16:15:08.322Z,21.00
2018-10-12T16:17:37.442Z,20.90
2018-10-12T16:20:06.635Z,20.80
2018-10-12T16:22:35.966Z,20.80
2018-10-12T16:26:15.433Z,20.70
2018-10-12T16:28:44.797Z,20.70
2018-10-12T16:31:14.101Z,20.60
2018-10-12T16:33:43.189Z,20.50
2018-10-12T16:36:12.487Z,20.50
2018-10-12T16:38:41.746Z,20.40
2018-10-12T16:41:11.068Z,20.30
2018-10-12T16:43:40.297Z,20.30
2018-10-12T16:46:09.548Z,20.20
2018-10-12T16:48:38.719Z,20.20
2018-10-12T16:51:08.046Z,20.10
2018-10-12T16:53:37.258Z,20.00
2018-10-12T16:56:06.397Z,20.00
2018-10-12T16:58:35.662Z,20.00
2018-10-12T17:01:04.882Z,19.90
2018-10-12T17:03:34.146Z,19.90
2018-10-12T17:06:04.407Z,19.80
2018-10-12T17:08:33.677Z,19.80
2018-10-12T17:11:07.372Z,19.70
2018-10-12T17:13:36.821Z,19.70
2018-10-12T17:16:06.271Z,19.60
2018-10-12T17:18:35.460Z,19.60
2018-10-12T17:21:04.645Z,19.60
2018-10-12T17:23:33.854Z,19.50
2018-10-12T17:26:03.033Z,19.50
2018-10-12T17:28:33.229Z,19.50
2018-10-12T17:31:02.449Z,19.40
2018-10-12T17:33:31.829Z,19.40
2018-10-12T17:36:00.954Z,19.40
2018-10-12T17:38:30.234Z,19.30
2018-10-12T17:41:04.064Z,19.30
2018-10-12T17:43:33.262Z,19.20
2018-10-12T17:46:02.457Z,19.20
2018-10-12T17:48:31.614Z,19.20
2018-10-12T17:51:00.944Z,19.10
2018-10-12T17:53:30.166Z,19.10
2018-10-12T17:55:59.366Z,19.10
2018-10-12T17:58:28.554Z,19.00
2018-10-12T18:00:57.818Z,19.00
2018-10-12T18:03:27.039Z,18.90
2018-10-12T18:05:56.778Z,18.80
2018-10-12T18:08:25.962Z,18.80
2018-10-12T18:10:55.254Z,18.80
2018-10-12T18:13:24.621Z,18.70
2018-10-12T18:15:53.892Z,18.70
2018-10-12T18:18:23.083Z,18.60
2018-10-12T18:20:52.243Z,18.60
2018-10-12T18:23:21.730Z,18.60
2018-10-12T18:25:51.016Z,18.60
2018-10-12T18:28:20.261Z,18.50
2018-10-12T18:30:49.354Z,18.50
2018-10-12T18:33:18.579Z,18.40
2018-10-12T18:35:47.748Z,18.40
2018-10-12T18:38:16.931Z,18.30
2018-10-12T18:40:46.409Z,18.30
2018-10-12T18:43:15.724Z,18.20
2018-10-12T18:45:44.929Z,18.20
2018-10-12T18:48:14.145Z,18.10
2018-10-12T18:50:43.376Z,18.10
2018-10-12T18:53:12.487Z,17.90
2018-10-12T18:55:41.688Z,17.90
2018-10-12T18:58:10.896Z,17.90
2018-10-12T19:00:41.273Z,17.90
2018-10-12T19:03:10.490Z,17.90
2018-10-12T19:05:39.673Z,17.80
2018-10-12T19:08:08.965Z,17.80
2018-10-12T19:10:38.341Z,17.80
2018-10-12T19:13:07.523Z,17.70
2018-10-12T19:15:36.694Z,17.70
2018-10-12T19:18:05.891Z,17.60
2018-10-12T19:20:35.135Z,17.60
2018-10-12T19:23:04.322Z,17.50
2018-10-12T19:25:33.486Z,17.50
2018-10-12T19:28:02.622Z,17.50
2018-10-12T19:30:31.932Z,17.50
2018-10-12T19:33:01.303Z,17.40
2018-10-12T19:35:30.641Z,17.40
2018-10-12T19:37:59.817Z,17.40
2018-10-12T19:40:28.959Z,17.40
2018-10-12T19:42:58.138Z,17.40
2018-10-12T19:45:27.441Z,17.30
2018-10-12T19:47:56.642Z,17.30
2018-10-12T19:50:25.970Z,17.30
2018-10-12T19:52:55.223Z,17.20
2018-10-12T19:55:24.519Z,17.20
2018-10-12T19:57:53.718Z,17.10
2018-10-12T20:00:22.911Z,17.10
2018-10-12T20:02:51.960Z,17.10
2018-10-12T20:05:21.402Z,17.10
2018-10-12T20:07:50.684Z,17.00
2018-10-12T20:10:20.043Z,17.00
2018-10-12T20:12:49.110Z,17.00
2018-10-12T20:15:18.350Z,16.90
2018-10-12T20:17:47.705Z,16.90
2018-10-12T20:20:16.837Z,16.90
2018-10-12T20:22:46.869Z,16.80
2018-10-12T20:25:16.105Z,16.80
2018-10-12T20:27:45.306Z,16.70
2018-10-12T20:30:14.553Z,16.70
2018-10-12T20:32:43.733Z,16.70
2018-10-12T20:35:12.961Z,16.70
2018-10-12T20:37:42.120Z,16.70
2018-10-12T20:40:11.362Z,16.60
2018-10-12T20:42:40.697Z,16.60
2018-10-12T20:45:10.023Z,16.60
2018-10-12T20:47:39.350Z,16.60
2018-10-12T20:50:08.530Z,16.50
2018-10-12T20:52:37.810Z,16.50
2018-10-12T20:55:07.070Z,16.50
2018-10-12T20:57:40.362Z,16.50
2018-10-12T21:00:10.514Z,16.40
2018-10-12T21:02:39.747Z,16.40
2018-10-12T21:05:09.029Z,16.40
2018-10-12T21:07:38.182Z,16.30
2018-10-12T21:10:07.690Z,16.20
2018-10-12T21:12:36.930Z,16.20
2018-10-12T21:15:06.274Z,16.10
2018-10-12T21:17:36.113Z,16.00
2018-10-12T21:20:05.963Z,16.00
2018-10-12T21:22:35.277Z,15.90
2018-10-12T21:25:04.558Z,15.80
2018-10-12T21:27:33.735Z,15.80
2018-10-12T21:30:03.014Z,15.80
2018-10-12T21:32:32.305Z,15.80
2018-10-12T21:35:01.458Z,15.70
2018-10-12T21:37:30.771Z,15.70
2018-10-12T21:39:59.827Z,15.80
2018-10-12T21:42:29.025Z,15.70
2018-10-12T21:44:58.356Z,15.70
2018-10-12T21:47:27.499Z,15.70
2018-10-12T21:49:56.515Z,15.70
2018-10-12T21:52:25.789Z,15.70
2018-10-12T21:54:54.953Z,15.70
2018-10-12T21:57:24.127Z,15.60
2018-10-12T21:59:53.377Z,15.50
2018-10-12T22:02:22.617Z,15.50
2018-10-12T22:04:51.774Z,15.40
2018-10-12T22:07:20.944Z,15.30
2018-10-12T22:09:50.160Z,15.40
2018-10-12T22:12:19.967Z,15.30
2018-10-12T22:14:49.146Z,15.30
2018-10-12T22:17:18.266Z,15.20
2018-10-12T22:19:47.378Z,15.20
2018-10-12T22:22:16.690Z,15.20
2018-10-12T22:24:45.786Z,15.20
2018-10-12T22:27:15.167Z,15.20
2018-10-12T22:29:44.429Z,15.10
2018-10-12T22:32:13.624Z,15.10
2018-10-12T22:34:42.666Z,15.10
2018-10-12T22:37:12.025Z,15.10
2018-10-12T22:39:43.088Z,15.00
2018-10-12T22:42:13.552Z,15.00
2018-10-12T22:44:42.801Z,15.00
2018-10-12T22:47:12.029Z,15.00
2018-10-12T22:49:41.277Z,14.90
2018-10-12T22:52:10.515Z,15.00
2018-10-12T22:54:39.666Z,14.90
2018-10-12T22:57:08.926Z,14.90
2018-10-12T22:59:38.151Z,14.90
2018-10-12T23:02:07.578Z,14.80
2018-10-12T23:04:36.838Z,14.80
2018-10-12T23:07:05.999Z,14.80
2018-10-12T23:09:35.262Z,14.80
2018-10-12T23:12:04.576Z,14.80
2018-10-12T23:14:33.810Z,14.80
2018-10-12T23:17:02.885Z,14.70
2018-10-12T23:19:32.046Z,14.80
2018-10-12T23:22:01.275Z,14.70
2018-10-12T23:24:30.426Z,14.70
2018-10-12T23:26:59.597Z,14.70
2018-10-12T23:29:28.749Z,14.60
2018-10-12T23:31:58.026Z,14.60
2018-10-12T23:34:27.150Z,14.60
2018-10-12T23:36:56.258Z,14.50
2018-10-12T23:39:25.522Z,14.50
2018-10-12T23:41:54.689Z,14.50
2018-10-12T23:44:24.498Z,14.40
2018-10-12T23:46:53.729Z,14.40
2018-10-12T23:49:22.986Z,14.40
2018-10-12T23:51:52.290Z,14.40
2018-10-12T23:54:21.337Z,14.30
2018-10-12T23:56:50.634Z,14.30
2018-10-12T23:59:19.959Z,14.20
